Time;durP1;ratioP1;P1;durP2;ratioP2;P2;SDS_P1;SDS_P2;PMS_P1;PMS_P2;Temp;Humidity;BMP_temperature;BMP_pressure;BME280_temperature;BME280_humidity;BME280_pressure;Samples;Min_cycle;Max_cycle;Signal;HPM_P1;HPM_P2
2021/04/10 10:01:08;;;;;;;0.10;0.10;;;;;;;;;;5105863;27;20445;-48
2021/04/10 10:03:36;;;;;;;0.08;0.08;;;;;;;;;;5088390;28;20052;-46
2021/04/10 10:06:02;;;;;;;0.00;0.00;;;;;;;;;;5089905;28;20155;-46
2021/04/10 10:08:32;;;;;;;0.00;0.00;;;;;;;;;;5085497;28;20052;-52
2021/04/10 10:12:33;;;;;;;0.00;0.00;;;;;;;;;;5139885;27;20389;-34
2021/04/10 10:14:59;;;;;;;0.00;0.00;;;;;;;;;;5098123;27;20048;-34
2021/04/10 10:17:29;;;;;;;0.00;0.00;;;;;;;;;;5122626;28;20044;-34
2021/04/10 10:20:08;;;;;;;0.10;0.10;;;;;;;;;;5113279;28;20486;-35
2021/04/10 10:22:35;;;;;;;0.00;0.00;;;;;;;;;;5113725;28;20060;-32
2021/04/10 10:25:02;;;;;;;0.00;0.00;;;;;;;;;;5122296;28;20510;-32
2021/04/10 10:27:34;;;;;;;0.03;0.03;;;;;;;;;;5092577;28;20384;-33
2021/04/10 10:30:00;;;;;;;0.00;0.00;;;;;;;;;;5117781;28;20044;-32
2021/04/10 10:32:27;;;;;;;0.00;0.00;;;;;;;;;;5117438;28;20062;-36
2021/04/10 10:34:54;;;;;;;0.10;0.10;;;;;;;;;;5110312;28;20048;-36
2021/04/10 10:37:24;;;;;;;0.00;0.00;;;;;;;;;;5122261;28;20070;-36
2021/04/10 10:39:51;;;;;;;0.10;0.10;;;;;;;;;;5112755;28;20043;-35
2021/04/10 10:42:17;;;;;;;0.00;0.00;;;;;;;;;;5115932;28;20461;-36
2021/04/10 10:44:45;;;;;;;0.00;0.00;;;;;;;;;;5101390;28;20052;-36
2021/04/10 10:47:11;;;;;;;0.00;0.00;;;;;;;;;;5119865;28;20081;-36
2021/04/10 10:49:38;;;;;;;0.08;0.08;;;;;;;;;;5110642;28;20051;-36
2021/04/10 10:52:05;;;;;;;2.72;2.47;;;;;;;;;;5116669;28;20056;-36
2021/04/10 10:54:32;;;;;;;0.00;0.00;;;;;;;;;;5117876;28;20439;-36
2021/04/10 10:56:58;;;;;;;0.00;0.00;;;;;;;;;;5109525;28;20054;-35
2021/04/10 10:59:27;;;;;;;0.00;0.00;;;;;;;;;;5122099;28;20055;-36
2021/04/10 11:01:54;;;;;;;0.00;0.00;;;;;;;;;;5112684;28;20040;-37
2021/04/10 11:04:21;;;;;;;0.03;0.03;;;;;;;;;;5114487;28;20055;-36
2021/04/10 11:06:49;;;;;;;0.00;0.00;;;;;;;;;;5119517;28;20055;-46
2021/04/10 11:09:16;;;;;;;16.35;14.80;;;;;;;;;;5106555;28;20060;-41
2021/04/10 11:11:43;;;;;;;0.05;0.05;;;;;;;;;;5110145;28;20043;-42
2021/04/10 11:14:10;;;;;;;0.10;0.10;;;;;;;;;;5110955;28;20408;-49
2021/04/10 11:16:42;;;;;;;0.00;0.00;;;;;;;;;;5111093;28;20208;-47
2021/04/10 11:19:09;;;;;;;19.30;18.10;;;;;;;;;;5108178;28;20058;-45
2021/04/10 11:26:07;;;;;;;0.10;0.10;;;;;;;;;;5135333;27;20390;-39
2021/04/10 11:28:34;;;;;;;0.00;0.00;;;;;;;;;;5113370;27;20384;-45
2021/04/10 11:38:30;;;;;;;0.00;0.00;;;;;;;;;;5062274;28;20872;-46
2021/04/10 11:40:56;;;;;;;0.00;0.00;;;;;;;;;;5069593;28;20124;-44
2021/04/10 11:43:22;;;;;;;0.00;0.00;;;;;;;;;;5082051;28;20676;-46
2021/04/10 11:45:49;;;;;;;4.25;3.85;;;;;;;;;;5059994;28;20032;-50
2021/04/10 11:48:16;;;;;;;0.05;0.05;;;;;;;;;;5072642;28;20484;-53
2021/04/10 11:50:43;;;;;;;0.00;0.00;;;;;;;;;;5071437;28;20477;-53
2021/04/10 11:53:14;;;;;;;0.00;0.00;;;;;;;;;;5083175;28;20452;-48
2021/04/10 11:55:40;;;;;;;0.00;0.00;;;;;;;;;;5070732;28;20027;-47
2021/04/10 11:58:06;;;;;;;0.00;0.00;;;;;;;;;;5074450;28;20127;-48
2021/04/10 12:00:32;;;;;;;0.00;0.00;;;;;;;;;;5075318;28;20036;-47
2021/04/10 12:03:26;;;;;;;0.00;0.00;;;;;;;;;;5066798;28;20481;-46
2021/04/10 12:05:52;;;;;;;0.00;0.00;;;;;;;;;;5056031;28;20124;-47
2021/04/10 12:08:25;;;;;;;0.00;0.00;;;;;;;;;;5072607;28;20052;-48
2021/04/10 12:10:53;;;;;;;0.00;0.00;;;;;;;;;;5062467;28;20503;-47
2021/04/10 12:13:19;;;;;;;0.00;0.00;;;;;;;;;;5080689;28;20059;-52
2021/04/10 12:15:50;;;;;;;0.03;0.03;;;;;;;;;;5066993;28;20506;-47
2021/04/10 12:18:17;;;;;;;0.00;0.00;;;;;;;;;;5074286;28;20041;-47
2021/04/10 12:20:43;;;;;;;0.00;0.00;;;;;;;;;;5078635;28;20618;-46
2021/04/10 12:23:09;;;;;;;0.00;0.00;;;;;;;;;;5068033;28;20032;-46
2021/04/10 12:25:36;;;;;;;0.00;0.00;;;;;;;;;;5079962;28;20028;-48
2021/04/10 12:28:02;;;;;;;0.00;0.00;;;;;;;;;;5072563;28;20480;-49
2021/04/10 12:30:28;;;;;;;0.05;0.05;;;;;;;;;;5072484;28;20110;-47
2021/04/10 12:32:54;;;;;;;0.00;0.00;;;;;;;;;;5080022;28;20028;-48
2021/04/10 12:35:21;;;;;;;0.00;0.00;;;;;;;;;;5067335;28;20040;-48
2021/04/10 12:37:47;;;;;;;0.00;0.00;;;;;;;;;;5077735;28;20564;-47
2021/04/10 12:40:13;;;;;;;0.00;0.00;;;;;;;;;;5073968;28;20481;-47
2021/04/10 12:42:39;;;;;;;0.00;0.00;;;;;;;;;;5070473;28;20028;-47
2021/04/10 12:45:06;;;;;;;0.10;0.10;;;;;;;;;;5061306;28;20025;-47
2021/04/10 12:47:32;;;;;;;0.00;0.00;;;;;;;;;;5084230;28;20040;-48
2021/04/10 12:49:58;;;;;;;0.00;0.00;;;;;;;;;;5062535;28;20013;-47
2021/04/10 12:52:24;;;;;;;0.00;0.00;;;;;;;;;;5061709;28;20395;-54
2021/04/10 12:54:50;;;;;;;0.08;0.08;;;;;;;;;;5055606;28;20031;-54
2021/04/10 12:57:16;;;;;;;0.10;0.10;;;;;;;;;;5065191;28;20502;-57
2021/04/10 12:59:43;;;;;;;0.00;0.00;;;;;;;;;;5056191;28;20604;-57
2021/04/10 13:02:09;;;;;;;0.00;0.00;;;;;;;;;;5060901;28;20029;-56
2021/04/10 13:04:35;;;;;;;0.00;0.00;;;;;;;;;;5063486;28;20057;-56
2021/04/10 13:07:03;;;;;;;0.00;0.00;;;;;;;;;;5053596;28;20037;-57
2021/04/10 13:09:29;;;;;;;0.00;0.00;;;;;;;;;;5038946;28;20025;-56
2021/04/10 13:11:56;;;;;;;0.00;0.00;;;;;;;;;;5057751;28;20370;-56
2021/04/10 13:14:22;;;;;;;0.00;0.00;;;;;;;;;;5052754;28;20045;-46
2021/04/10 13:16:48;;;;;;;0.10;0.10;;;;;;;;;;5059501;28;20070;-45
2021/04/10 13:19:14;;;;;;;0.00;0.00;;;;;;;;;;5053505;28;20021;-48
2021/04/10 13:21:41;;;;;;;0.00;0.00;;;;;;;;;;5064796;28;20033;-47
2021/04/10 13:24:08;;;;;;;0.00;0.00;;;;;;;;;;5059155;28;20056;-51
2021/04/10 13:26:34;;;;;;;0.00;0.00;;;;;;;;;;5057514;28;20017;-50
2021/04/10 13:29:00;;;;;;;0.00;0.00;;;;;;;;;;5066488;28;20033;-44
2021/04/10 13:31:26;;;;;;;0.00;0.00;;;;;;;;;;5053275;28;20027;-44
2021/04/10 13:33:52;;;;;;;0.00;0.00;;;;;;;;;;5062908;28;20025;-47
2021/04/10 13:36:18;;;;;;;0.00;0.00;;;;;;;;;;5059806;28;20048;-49
2021/04/10 13:38:44;;;;;;;0.00;0.00;;;;;;;;;;5055599;28;20481;-43
2021/04/10 13:41:10;;;;;;;0.00;0.00;;;;;;;;;;5066397;28;20074;-48
2021/04/10 13:43:36;;;;;;;0.00;0.00;;;;;;;;;;5054603;28;20020;-63
2021/04/10 13:46:02;;;;;;;0.00;0.00;;;;;;;;;;5046213;28;20554;-54
2021/04/10 13:48:28;;;;;;;0.00;0.00;;;;;;;;;;5056783;28;20060;-55
2021/04/10 13:50:54;;;;;;;0.00;0.00;;;;;;;;;;5065114;28;20028;-51
2021/04/10 13:53:20;;;;;;;0.00;0.00;;;;;;;;;;5052585;28;20065;-56
2021/04/10 13:55:47;;;;;;;0.00;0.00;;;;;;;;;;5063430;28;20025;-50
2021/04/10 13:58:13;;;;;;;0.00;0.00;;;;;;;;;;5059060;28;20099;-51
2021/04/10 14:00:41;;;;;;;0.00;0.00;;;;;;;;;;5054995;28;20532;-47
2021/04/10 14:03:07;;;;;;;0.00;0.00;;;;;;;;;;5065996;28;20040;-47
2021/04/10 14:05:34;;;;;;;0.00;0.00;;;;;;;;;;5053664;28;20024;-50
2021/04/10 14:08:01;;;;;;;0.00;0.00;;;;;;;;;;5061498;28;20055;-49
2021/04/10 14:10:27;;;;;;;0.00;0.00;;;;;;;;;;5049331;28;20033;-48
2021/04/10 14:12:54;;;;;;;0.00;0.00;;;;;;;;;;5064294;28;20064;-43
2021/04/10 14:15:27;;;;;;;0.00;0.00;;;;;;;;;;5040202;28;20497;-45
2021/04/10 14:17:53;;;;;;;0.00;0.00;;;;;;;;;;5061809;28;21015;-42
2021/04/10 14:20:22;;;;;;;0.00;0.00;;;;;;;;;;5059611;28;20551;-45
2021/04/10 14:22:48;;;;;;;0.00;0.00;;;;;;;;;;5054348;28;20069;-44
2021/04/10 14:25:16;;;;;;;0.00;0.00;;;;;;;;;;5065202;28;20028;-45
2021/04/10 14:27:42;;;;;;;0.00;0.00;;;;;;;;;;5054535;28;20041;-46
2021/04/10 14:30:12;;;;;;;0.00;0.00;;;;;;;;;;5059221;28;20024;-44
2021/04/10 14:32:38;;;;;;;0.00;0.00;;;;;;;;;;5060531;28;20036;-44
2021/04/10 17:39:41;;;;;;;0.00;0.00;;;;;;;;;;5111859;27;20366;-56
2021/04/10 17:42:07;;;;;;;0.00;0.00;;;;;;;;;;5115524;28;20281;-59
2021/04/10 17:44:33;;;;;;;0.00;0.00;;;;;;;;;;5100609;28;20032;-49
2021/04/10 17:46:59;;;;;;;0.03;0.03;;;;;;;;;;5117448;28;20032;-55
2021/04/10 17:49:25;;;;;;;0.00;0.00;;;;;;;;;;5105360;28;20044;-55
2021/04/10 17:51:52;;;;;;;0.00;0.00;;;;;;;;;;5112755;28;20027;-54
2021/04/10 17:54:18;;;;;;;0.00;0.00;;;;;;;;;;5113141;28;20023;-56
2021/04/10 17:56:44;;;;;;;0.00;0.00;;;;;;;;;;5118539;28;20399;-57
2021/04/10 17:59:10;;;;;;;0.00;0.00;;;;;;;;;;5108733;28;20036;-57
2021/04/10 18:01:36;;;;;;;0.00;0.00;;;;;;;;;;5119471;28;20054;-54
2021/04/10 18:04:03;;;;;;;0.00;0.00;;;;;;;;;;5113794;28;20066;-55
2021/04/10 18:06:31;;;;;;;0.00;0.00;;;;;;;;;;5113671;28;20491;-54
2021/04/10 18:08:57;;;;;;;0.00;0.00;;;;;;;;;;5115977;28;20073;-57
2021/04/10 18:11:23;;;;;;;0.00;0.00;;;;;;;;;;5121919;28;20028;-63
2021/04/10 18:13:49;;;;;;;0.00;0.00;;;;;;;;;;5107945;28;20057;-58
2021/04/10 18:16:16;;;;;;;0.00;0.00;;;;;;;;;;5094761;28;20494;-59
2021/04/10 18:18:42;;;;;;;0.00;0.00;;;;;;;;;;5105162;28;20032;-61
2021/04/10 18:21:08;;;;;;;0.00;0.00;;;;;;;;;;5105792;28;20027;-61
2021/04/10 18:23:36;;;;;;;0.00;0.00;;;;;;;;;;5120916;28;20542;-59
2021/04/10 18:26:06;;;;;;;0.00;0.00;;;;;;;;;;5104734;28;20055;-48
2021/04/10 18:28:32;;;;;;;0.00;0.00;;;;;;;;;;5106068;28;20028;-47
2021/04/10 18:31:01;;;;;;;0.00;0.00;;;;;;;;;;5105797;28;20499;-48
2021/04/10 18:33:28;;;;;;;0.00;0.00;;;;;;;;;;5105712;28;20036;-47
2021/04/10 18:35:54;;;;;;;0.10;0.10;;;;;;;;;;5105327;28;20036;-46
2021/04/10 18:38:20;;;;;;;0.00;0.00;;;;;;;;;;5105388;28;20499;-47
2021/04/10 18:40:46;;;;;;;0.00;0.00;;;;;;;;;;5105718;28;20484;-42
2021/04/10 18:43:21;;;;;;;0.00;0.00;;;;;;;;;;5105852;28;20383;-41
2021/04/10 18:45:51;;;;;;;0.38;0.38;;;;;;;;;;5105869;28;20080;-44
2021/04/10 18:48:17;;;;;;;0.00;0.00;;;;;;;;;;5106397;28;20053;-43
2021/04/10 18:50:45;;;;;;;0.00;0.00;;;;;;;;;;5093918;28;20031;-42
2021/04/10 18:53:11;;;;;;;4.40;3.83;;;;;;;;;;5092282;28;20126;-43
2021/04/10 18:55:37;;;;;;;0.10;0.10;;;;;;;;;;5091963;28;20054;-41
2021/04/10 18:58:03;;;;;;;0.00;0.00;;;;;;;;;;5091575;28;20111;-43
2021/04/10 19:00:29;;;;;;;0.00;0.00;;;;;;;;;;5091878;28;20036;-43
2021/04/10 19:02:55;;;;;;;0.00;0.00;;;;;;;;;;5092147;28;20444;-42
2021/04/10 19:05:22;;;;;;;0.00;0.00;;;;;;;;;;5091769;28;20123;-42
2021/04/10 19:07:48;;;;;;;0.00;0.00;;;;;;;;;;5091981;28;20111;-42
2021/04/10 19:10:15;;;;;;;0.65;0.65;;;;;;;;;;5091975;28;20459;-43
2021/04/10 19:12:41;;;;;;;0.00;0.00;;;;;;;;;;5091759;28;20459;-41
2021/04/10 19:15:08;;;;;;;0.00;0.00;;;;;;;;;;5091617;28;20028;-43
2021/04/10 19:17:34;;;;;;;0.00;0.00;;;;;;;;;;5091212;28;20027;-41
2021/04/10 19:20:02;;;;;;;0.00;0.00;;;;;;;;;;5091249;28;20056;-42
2021/04/10 19:22:28;;;;;;;0.00;0.00;;;;;;;;;;5091172;28;20028;-41
2021/04/10 19:24:54;;;;;;;0.00;0.00;;;;;;;;;;5091421;28;20114;-42
2021/04/10 19:27:20;;;;;;;0.00;0.00;;;;;;;;;;5091061;28;20487;-41
2021/04/10 19:29:46;;;;;;;0.00;0.00;;;;;;;;;;5091355;28;20028;-41
2021/04/10 19:32:13;;;;;;;0.00;0.00;;;;;;;;;;5091769;28;20440;-42
2021/04/10 19:34:39;;;;;;;0.00;0.00;;;;;;;;;;5091490;28;20035;-44
2021/04/10 19:37:06;;;;;;;0.00;0.00;;;;;;;;;;5090824;28;20165;-43
2021/04/10 19:39:32;;;;;;;0.00;0.00;;;;;;;;;;5090818;28;20088;-42
2021/04/10 19:41:58;;;;;;;0.00;0.00;;;;;;;;;;5090987;28;20646;-43
2021/04/10 19:44:24;;;;;;;0.00;0.00;;;;;;;;;;5091461;28;20092;-42
2021/04/10 19:46:51;;;;;;;0.00;0.00;;;;;;;;;;5091036;28;20031;-42
2021/04/10 19:49:18;;;;;;;0.00;0.00;;;;;;;;;;5091109;28;20024;-45
2021/04/10 19:51:45;;;;;;;0.10;0.10;;;;;;;;;;5091187;28;20040;-43
2021/04/10 19:54:11;;;;;;;0.10;0.10;;;;;;;;;;5090967;28;20073;-43
2021/04/10 19:56:38;;;;;;;0.00;0.00;;;;;;;;;;5090656;28;20387;-42
2021/04/10 19:59:04;;;;;;;0.00;0.00;;;;;;;;;;5090877;28;20039;-41
2021/04/10 20:01:32;;;;;;;0.00;0.00;;;;;;;;;;5090079;28;20024;-42
2021/04/10 20:03:58;;;;;;;0.00;0.00;;;;;;;;;;5090829;28;20032;-41
2021/04/10 20:06:24;;;;;;;0.00;0.00;;;;;;;;;;5090544;28;20464;-42
2021/04/10 20:08:54;;;;;;;0.00;0.00;;;;;;;;;;5090752;28;20060;-44
2021/04/10 20:11:22;;;;;;;0.00;0.00;;;;;;;;;;5090565;28;20039;-46
2021/04/10 20:13:49;;;;;;;0.00;0.00;;;;;;;;;;5090411;28;20074;-44
2021/04/10 20:16:15;;;;;;;0.00;0.00;;;;;;;;;;5090582;28;20479;-42
2021/04/10 20:18:41;;;;;;;0.00;0.00;;;;;;;;;;5090100;28;20032;-41
2021/04/10 20:21:07;;;;;;;0.00;0.00;;;;;;;;;;5090228;28;20024;-41
2021/04/10 20:23:35;;;;;;;0.00;0.00;;;;;;;;;;5088837;28;20024;-42
2021/04/10 20:26:02;;;;;;;7.53;3.63;;;;;;;;;;5090035;28;20036;-44
2021/04/10 20:28:28;;;;;;;0.00;0.00;;;;;;;;;;5090098;28;20027;-41
2021/04/10 20:30:54;;;;;;;0.00;0.00;;;;;;;;;;5090195;28;20387;-42
2021/04/10 20:33:20;;;;;;;0.00;0.00;;;;;;;;;;5090128;28;20024;-40
2021/04/10 20:35:48;;;;;;;0.00;0.00;;;;;;;;;;5089700;28;20032;-41
2021/04/10 20:38:14;;;;;;;0.00;0.00;;;;;;;;;;5089889;28;20653;-41
2021/04/10 20:40:40;;;;;;;0.00;0.00;;;;;;;;;;5090139;28;20036;-42
2021/04/10 20:43:06;;;;;;;0.00;0.00;;;;;;;;;;5089650;28;20407;-41
2021/04/10 20:45:32;;;;;;;0.00;0.00;;;;;;;;;;5089894;28;20521;-43
2021/04/10 20:47:58;;;;;;;0.00;0.00;;;;;;;;;;5089779;28;20028;-43
2021/04/10 20:50:25;;;;;;;0.00;0.00;;;;;;;;;;5089660;28;20028;-41
2021/04/10 20:52:52;;;;;;;0.00;0.00;;;;;;;;;;5089906;28;20046;-44
2021/04/10 20:55:18;;;;;;;0.00;0.00;;;;;;;;;;5089607;28;20102;-41
2021/04/10 20:57:45;;;;;;;0.10;0.10;;;;;;;;;;5089252;28;20071;-41
2021/04/10 21:00:12;;;;;;;0.00;0.00;;;;;;;;;;5089577;28;20032;-42
2021/04/10 21:02:38;;;;;;;0.00;0.00;;;;;;;;;;5089216;28;20028;-43
2021/04/10 21:05:05;;;;;;;0.00;0.00;;;;;;;;;;5089574;28;20042;-42
2021/04/10 21:07:31;;;;;;;0.00;0.00;;;;;;;;;;5089385;28;20117;-42
2021/04/10 21:09:57;;;;;;;0.00;0.00;;;;;;;;;;5089631;28;20050;-43
2021/04/10 21:12:24;;;;;;;0.00;0.00;;;;;;;;;;5089511;28;20035;-44
2021/04/10 21:14:50;;;;;;;0.10;0.10;;;;;;;;;;5089377;28;20522;-42
2021/04/10 21:17:16;;;;;;;0.00;0.00;;;;;;;;;;5089432;28;20036;-41
2021/04/10 21:19:43;;;;;;;0.00;0.00;;;;;;;;;;5089361;28;20094;-44
2021/04/10 21:22:09;;;;;;;0.00;0.00;;;;;;;;;;5088968;28;20024;-43
2021/04/10 21:24:36;;;;;;;0.10;0.10;;;;;;;;;;5089298;28;20112;-42
2021/04/10 21:27:03;;;;;;;0.00;0.00;;;;;;;;;;5089104;28;20454;-41
2021/04/10 21:29:29;;;;;;;0.00;0.00;;;;;;;;;;5089309;28;20027;-44
2021/04/10 21:31:55;;;;;;;0.00;0.00;;;;;;;;;;5089516;28;20020;-41
2021/04/10 21:34:21;;;;;;;0.00;0.00;;;;;;;;;;5089356;28;20066;-42
2021/04/10 21:36:47;;;;;;;0.00;0.00;;;;;;;;;;5089430;28;20028;-42
2021/04/10 21:39:14;;;;;;;0.32;0.32;;;;;;;;;;5088944;28;20069;-42
2021/04/10 21:41:40;;;;;;;0.00;0.00;;;;;;;;;;5089115;28;20495;-42
2021/04/10 21:44:07;;;;;;;0.00;0.00;;;;;;;;;;5089117;28;20020;-43
2021/04/10 21:46:34;;;;;;;0.00;0.00;;;;;;;;;;5088863;28;20032;-41
2021/04/10 21:49:01;;;;;;;0.10;0.10;;;;;;;;;;5088909;28;20020;-41
2021/04/10 21:51:28;;;;;;;0.00;0.00;;;;;;;;;;5089078;28;20032;-44
2021/04/10 21:53:55;;;;;;;0.00;0.00;;;;;;;;;;5089006;28;20032;-43
2021/04/10 21:56:21;;;;;;;0.00;0.00;;;;;;;;;;5088814;28;20054;-42
2021/04/10 21:58:47;;;;;;;0.00;0.00;;;;;;;;;;5088716;28;20067;-43
2021/04/10 22:01:15;;;;;;;0.00;0.00;;;;;;;;;;5089045;28;20035;-42
2021/04/10 22:03:51;;;;;;;0.10;0.10;;;;;;;;;;5088808;28;20058;-41
2021/04/10 22:06:19;;;;;;;0.00;0.00;;;;;;;;;;5089266;28;20399;-41
2021/04/10 22:08:45;;;;;;;0.00;0.00;;;;;;;;;;5088999;28;20067;-43
2021/04/10 22:11:12;;;;;;;0.00;0.00;;;;;;;;;;5088924;28;20510;-42
2021/04/10 22:13:38;;;;;;;0.20;0.20;;;;;;;;;;5088816;28;20024;-46
2021/04/10 22:16:05;;;;;;;0.00;0.00;;;;;;;;;;5089838;28;20154;-44
2021/04/10 22:18:31;;;;;;;0.00;0.00;;;;;;;;;;5088880;28;20561;-42
2021/04/10 22:20:57;;;;;;;0.00;0.00;;;;;;;;;;5088526;28;20052;-43
2021/04/10 22:23:23;;;;;;;0.00;0.00;;;;;;;;;;5088987;28;20062;-42
2021/04/10 22:25:49;;;;;;;0.00;0.00;;;;;;;;;;5091533;28;20041;-43
2021/04/10 22:28:15;;;;;;;0.00;0.00;;;;;;;;;;5092498;28;20383;-43
2021/04/10 22:30:41;;;;;;;0.00;0.00;;;;;;;;;;5093517;28;20032;-41
